Latest Weather Observations for Mareeba

IDQ60801

Issued at 11:05 pm EST Thursday 27 November 2014 (issued every 30 minutes, with the page automatically refreshed every 10 minutes)

About weather observations | Map of weather stations | Latest weather observations for QLD | Other Formats
Station Details ID: 031210 Name: MAREEBA AIRPORT Lat: -17.07 Lon: 145.43 Height: 471.93 m
Data from the previous 72 hours. | See also: Recent months at Mareeba
Date/Time
EST
Temp
°C
App
Temp
°C
Dew
Point
Rel
Hum
%
Delta-T
°C
Wind Press
QNH
hPa
Press
MSL
hPa
Rain
since 9 am
mm
Dir
 
Spd
km/h
Gust
km/h
Spd
kts
Gust
kts
27/11:00pm 20.6 20.6 15.2 71 3.3 SE 9 17 5 9 1014.1 - 0.0
27/10:30pm 21.4 19.5 15.3 68 3.7 SE 19 26 10 14 1014.1 - 0.0
27/10:00pm 21.6 19.8 15.4 68 3.8 SSE 19 26 10 14 1014.1 - 0.0
27/09:30pm 22.0 20.4 15.1 65 4.2 SSE 17 24 9 13 1014.1 - 0.0
27/09:00pm 22.5 20.4 14.6 61 4.8 SSE 19 28 10 15 1013.9 1010.9 0.0
27/08:30pm 23.0 20.6 14.3 58 5.2 SSE 20 28 11 15 1013.6 - 0.0
27/08:00pm 23.3 22.6 15.4 61 4.8 SSE 13 17 7 9 1013.6 - 0.0
27/07:30pm 24.0 23.0 15.5 59 5.2 SE 15 26 8 14 1013.3 - 0.0
27/07:00pm 25.2 23.6 14.9 52 6.3 ESE 17 26 9 14 1012.9 - 0.0
27/06:30pm 26.1 23.6 13.6 46 7.5 SE 19 28 10 15 1012.7 - 0.0
27/06:00pm 27.7 25.3 15.4 47 7.7 ESE 22 32 12 17 1012.2 1009.2 0.0
27/05:30pm 28.5 25.5 14.7 43 8.5 ESE 24 33 13 18 1011.8 - 0.0
27/05:00pm 29.3 26.0 13.9 39 9.4 SE 24 30 13 16 1011.4 - 0.0
27/04:30pm 30.1 27.8 14.2 38 9.8 ESE 19 30 10 16 1011.3 - 0.0
27/04:00pm 30.1 27.4 13.4 36 10.2 ESE 20 28 11 15 1011.2 - 0.0
27/03:30pm 29.7 26.8 13.9 38 9.7 SSE 22 30 12 16 1011.2 - 0.0
27/03:00pm 30.3 26.8 14.4 38 9.8 ESE 26 30 14 16 1011.4 1008.4 0.0
27/02:30pm 30.4 29.4 14.5 38 9.9 ESE 13 22 7 12 1011.7 - 0.0
27/02:00pm 31.3 28.7 14.9 37 10.3 SSE 22 32 12 17 1012.0 - 0.0
27/01:30pm 30.1 28.6 14.2 38 9.8 ESE 15 26 8 14 1012.3 - 0.0
27/01:00pm 29.4 28.0 14.4 40 9.2 E 15 26 8 14 1012.7 - 0.0
27/12:30pm 29.3 28.0 14.7 41 9.0 E 15 26 8 14 1013.1 - 0.0
27/12:00pm 29.9 27.9 14.0 37 9.8 SE 17 22 9 12 1013.4 1010.4 0.0
27/11:30am 29.1 26.4 14.5 41 9.0 ESE 22 30 12 16 1013.8 - 0.0
27/11:00am 29.4 27.7 16.2 44 8.4 SE 20 32 11 17 1014.2 - 0.0
27/10:30am 28.0 27.0 16.6 50 7.2 ESE 17 24 9 13 1014.7 - 0.0
27/10:00am 27.2 25.4 15.9 50 7.1 ESE 20 32 11 17 1014.7 - 0.0
27/09:30am 27.7 27.1 16.6 50 7.0 E 15 24 8 13 1014.9 - 0.0
27/09:00am 26.0 25.5 16.8 57 5.8 E 15 26 8 14 1015.0 1012.1 0.2
27/08:30am 25.6 25.9 17.0 59 5.4 E 11 19 6 10 1015.0 - 0.2
27/08:00am 25.4 25.5 16.5 58 5.6 E 11 17 6 9 1015.0 - 0.2
27/07:30am 25.3 25.2 17.0 60 5.2 ENE 13 19 7 10 1015.0 - 0.2
27/07:00am 23.7 26.0 16.7 65 4.4 CALM 0 6 0 3 1014.9 - 0.2
27/06:30am 22.9 24.5 16.9 69 3.8 S 4 9 2 5 1014.4 - 0.2
27/06:00am 22.5 23.6 17.0 71 3.4 ENE 7 11 4 6 1013.7 1010.7 0.2
27/05:30am 21.7 23.3 18.3 81 2.2 NNE 7 11 4 6 1013.3 - 0.2
27/05:00am 21.8 25.0 18.8 83 1.9 CALM 0 0 0 0 1013.4 - 0.2
27/04:30am 21.8 24.6 18.8 83 1.9 NW 2 7 1 4 1013.3 - 0.2
27/04:00am 22.2 24.0 18.2 78 2.5 ENE 6 7 3 4 1013.2 - 0.2
27/03:30am 21.7 24.9 18.9 84 1.8 CALM 0 0 0 0 1013.4 - 0.2
27/03:00am 21.6 24.8 18.8 84 1.8 CALM 0 0 0 0 1013.2 1010.2 0.2
27/02:30am 21.4 24.6 18.8 85 1.7 CALM 0 0 0 0 1013.1 - 0.2
27/02:00am 21.7 24.7 18.5 82 2.0 CALM 0 0 0 0 1013.1 - 0.2
27/01:30am 21.8 25.1 19.0 84 1.8 CALM 0 0 0 0 1013.3 - 0.2
27/01:00am 21.9 24.1 19.3 85 1.7 ESE 6 7 3 4 1013.3 - 0.2
27/12:30am 21.8 23.9 19.4 86 1.6 ENE 7 9 4 5 1013.7 - 0.2
27/12:00am 21.9 24.0 19.3 85 1.7 E 7 9 4 5 1013.9 1010.9 0.2
 
Date/Time
EST
Temp
°C
App
Temp
°C
Dew
Point
Rel
Hum
%
Delta-T
°C
Wind Press
QNH
hPa
Press
MSL
hPa
Rain
since 9 am
mm
Dir
 
Spd
km/h
Gust
km/h
Spd
kts
Gust
kts
26/11:30pm 23.3 25.3 18.8 76 2.9 ESE 6 9 3 5 1014.5 - 0.2
26/11:00pm 23.4 25.7 18.5 74 3.1 ESE 4 11 2 6 1014.6 - 0.2
26/10:30pm 23.4 26.0 18.3 73 3.3 NE 2 6 1 3 1014.7 - 0.2
26/10:00pm 23.6 25.0 17.8 70 3.7 NE 7 13 4 7 1014.8 - 0.2
26/09:30pm 24.1 25.2 18.1 69 3.8 SE 9 15 5 8 1014.5 - 0.2
26/09:00pm 23.6 24.9 17.6 69 3.8 SSE 7 9 4 5 1014.2 1011.2 0.2
26/08:30pm 23.2 24.5 17.2 69 3.8 NE 6 11 3 6 1014.1 - 0.2
26/08:00pm 23.4 24.3 16.7 66 4.2 ENE 7 9 4 5 1013.7 - 0.2
26/07:30pm 24.1 24.6 16.6 63 4.7 ENE 9 13 5 7 1013.6 - 0.2
26/07:00pm 24.8 24.5 16.5 60 5.2 ENE 13 20 7 11 1013.5 - 0.2
26/06:30pm 25.3 25.0 16.4 57 5.6 NE 13 20 7 11 1013.2 - 0.2
26/06:00pm 26.1 24.9 16.1 54 6.3 NE 17 28 9 15 1012.8 1009.9 0.2
26/05:30pm 26.9 25.1 15.6 50 7.0 ENE 19 32 10 17 1012.6 - 0.2
26/05:00pm 27.8 26.0 15.5 47 7.7 ENE 19 33 10 18 1012.4 - 0.2
26/04:30pm 28.4 25.3 12.3 37 9.6 ENE 20 28 11 15 1012.2 - 0.2
26/04:00pm 29.2 27.7 15.3 42 8.7 ENE 17 28 9 15 1012.0 - 0.2
26/03:30pm 28.9 26.4 13.6 39 9.3 E 19 32 10 17 1012.0 - 0.2
26/03:00pm 30.7 27.7 12.6 33 10.9 E 20 28 11 15 1011.8 1008.8 0.2
26/02:30pm 30.4 28.0 13.7 36 10.2 NE 19 26 10 14 1011.8 - 0.2
26/02:00pm 30.1 27.5 13.8 37 10.0 ENE 20 33 11 18 1012.0 - 0.2
26/01:30pm 29.0 26.9 16.2 46 8.1 ENE 22 35 12 19 1012.2 - 0.2
26/01:00pm 30.1 28.7 16.5 44 8.7 ENE 19 32 10 17 1012.3 - 0.2
26/12:30pm 29.9 28.6 16.7 45 8.4 NE 19 30 10 16 1012.7 - 0.2
26/12:00pm 28.8 27.4 17.0 49 7.5 ENE 20 30 11 16 1013.1 1010.1 0.2
26/11:30am 28.8 28.3 17.0 49 7.5 E 15 24 8 13 1013.4 - 0.2
26/11:00am 28.2 26.3 17.7 53 6.8 ESE 24 33 13 18 1013.8 - 0.0
26/10:30am 25.4 26.6 19.8 71 3.7 E 13 20 7 11 1014.4 - 0.0
26/10:00am 23.8 21.8 18.4 72 3.5 ESE 26 39 14 21 1014.7 - 0.0
26/09:30am 26.4 24.1 17.7 58 5.6 SE 26 32 14 17 1014.1 - 0.0
26/09:00am 26.8 28.5 18.1 59 5.6 E 6 11 3 6 1014.0 1011.0 0.0
26/08:30am 25.4 26.0 17.8 62 4.9 ESE 11 17 6 9 1014.0 - 0.0
26/08:00am 25.7 27.6 18.6 65 4.6 ENE 6 9 3 5 1013.8 - 0.0
26/07:30am 24.4 25.6 18.3 69 3.9 SE 9 13 5 7 1013.7 - 0.0
26/07:00am 23.6 24.1 18.3 72 3.4 SSE 13 19 7 10 1013.4 - 0.0
26/06:30am 22.2 23.5 18.4 79 2.4 SSE 9 13 5 7 1013.2 - 0.0
26/06:00am 20.4 21.6 18.3 88 1.3 SSE 9 13 5 7 1012.8 1009.9 0.0
26/05:30am 19.4 20.8 17.4 88 1.2 SSE 6 9 3 5 1012.6 - 0.0
26/05:00am 19.6 20.6 17.7 89 1.2 SSE 9 11 5 6 1012.4 - 0.0
26/04:30am 19.5 20.7 17.3 87 1.4 SE 7 11 4 6 1012.3 - 0.0
26/04:00am 19.5 21.5 16.9 85 1.6 ESE 2 6 1 3 1012.2 - 0.0
26/03:30am 20.1 21.1 17.7 86 1.5 SE 9 11 5 6 1012.2 - 0.0
26/03:00am 20.3 21.2 17.5 84 1.8 SE 9 13 5 7 1011.8 1008.8 0.0
26/02:30am 20.5 20.8 17.9 85 1.6 SSE 13 17 7 9 1012.0 - 0.0
26/02:00am 20.2 20.8 17.6 85 1.6 SSE 11 17 6 9 1012.3 - 0.0
26/01:30am 20.2 21.3 17.2 83 1.9 SE 7 11 4 6 1012.7 - 0.0
26/01:00am 20.2 20.6 17.2 83 1.9 SSE 11 17 6 9 1012.8 - 0.0
26/12:30am 20.4 20.9 17.4 83 1.9 SSE 11 15 6 8 1013.3 - 0.0
26/12:00am 20.3 22.6 16.7 80 2.2 CALM 0 0 0 0 1013.7 1010.7 0.0
 
Date/Time
EST
Temp
°C
App
Temp
°C
Dew
Point
Rel
Hum
%
Delta-T
°C
Wind Press
QNH
hPa
Press
MSL
hPa
Rain
since 9 am
mm
Dir
 
Spd
km/h
Gust
km/h
Spd
kts
Gust
kts
25/11:30pm 21.3 22.7 17.3 78 2.5 ESE 6 9 3 5 1014.1 - 0.0
25/11:00pm 20.1 22.2 16.3 79 2.3 CALM 0 6 0 3 1014.5 - 0.0
25/10:30pm 20.3 21.4 16.7 80 2.2 SSE 6 9 3 5 1014.6 - 0.0
25/10:00pm 21.2 23.6 17.0 77 2.6 CALM 0 0 0 0 1014.6 - 0.0
25/09:30pm 21.9 23.4 17.5 76 2.8 ENE 6 9 3 5 1014.4 - 0.0
25/09:00pm 22.2 23.5 17.6 75 2.9 NE 7 11 4 6 1014.0 1011.0 0.0
25/08:30pm 22.8 23.7 17.5 72 3.3 NNE 9 13 5 7 1013.8 - 0.0
25/08:00pm 23.8 24.6 16.3 63 4.7 ENE 7 13 4 7 1013.5 - 0.0
25/07:30pm 25.0 24.7 16.4 59 5.4 ESE 13 19 7 10 1013.1 - 0.0
25/07:00pm 25.9 25.9 16.2 55 6.1 E 11 17 6 9 1012.5 - 0.0
25/06:30pm 26.7 26.7 16.3 53 6.5 E 11 19 6 10 1012.1 - 0.0
25/06:00pm 27.5 26.2 16.8 52 6.8 E 19 24 10 13 1011.8 1008.8 0.0
25/05:30pm 28.8 26.9 15.3 43 8.4 ESE 19 28 10 15 1011.6 - 0.0
25/05:00pm 29.6 27.4 15.0 41 9.1 ESE 20 28 11 15 1011.3 - 0.0
25/04:30pm 29.9 28.8 15.2 41 9.2 E 15 24 8 13 1011.3 - 0.0
25/04:00pm 28.8 27.5 16.7 48 7.7 ENE 19 30 10 16 1011.2 - 0.0
25/03:30pm 29.1 28.3 17.0 48 7.7 ENE 17 28 9 15 1010.9 - 0.0
25/03:00pm 30.4 29.2 16.0 41 9.1 ENE 17 26 9 14 1011.0 1008.0 0.0
25/02:30pm 29.9 28.8 16.3 43 8.6 NE 17 28 9 15 1011.3 - 0.0
25/02:00pm 30.0 28.5 15.3 41 9.2 ENE 17 28 9 15 1011.5 - 0.0
25/01:30pm 30.8 29.2 14.0 36 10.3 NNE 15 26 8 14 1011.8 - 0.0
25/01:00pm 30.8 29.0 14.4 36 10.2 NE 17 28 9 15 1012.2 - 0.0
25/12:30pm 32.3 30.7 14.0 33 11.3 ESE 15 26 8 14 1012.4 - 0.0
25/12:00pm 31.6 29.4 13.4 33 11.1 ENE 17 28 9 15 1012.8 1009.9 0.0
25/11:30am 30.3 28.5 14.4 38 9.8 ENE 17 28 9 15 1013.3 - 0.0
25/11:00am 29.7 27.9 15.4 42 9.0 SE 19 32 10 17 1013.7 - 0.0
25/10:30am 28.4 27.6 16.0 47 7.8 NE 15 20 8 11 1014.0 - 0.0
25/10:00am 27.9 27.1 16.2 49 7.4 ENE 15 24 8 13 1014.3 - 0.0
25/09:30am 27.2 26.6 15.6 49 7.2 ESE 13 20 7 11 1014.4 - 0.0
25/09:00am 27.8 27.3 17.0 51 6.9 ENE 15 24 8 13 1014.7 1011.8 0.0
25/08:30am 26.1 26.6 17.5 59 5.5 ESE 11 17 6 9 1014.8 - 0.0
25/08:00am 24.9 25.6 17.1 62 4.9 E 9 17 5 9 1014.8 - 0.0
25/07:30am 24.5 26.1 18.2 68 4.0 ENE 7 13 4 7 1014.6 - 0.0
25/07:00am 23.4 25.8 18.7 75 3.0 SE 4 11 2 6 1014.5 - 0.0
25/06:30am 21.5 22.8 18.5 83 1.9 SE 9 11 5 6 1014.2 - 0.0
25/06:00am 20.2 20.8 17.8 86 1.5 ESE 11 13 6 7 1013.9 1010.9 0.0
25/05:30am 20.3 20.2 17.9 86 1.5 SE 15 20 8 11 1013.5 - 0.0
25/05:00am 20.7 21.1 18.1 85 1.6 ESE 13 17 7 9 1013.2 - 0.0
25/04:30am 20.1 21.5 17.9 87 1.4 ESE 7 13 4 7 1013.1 - 0.0
25/04:00am 19.4 21.9 17.2 87 1.4 CALM 0 6 0 3 1013.1 - 0.0
25/03:30am 19.9 21.2 17.5 86 1.5 SSE 7 11 4 6 1013.1 - 0.0
25/03:00am 19.7 20.7 16.9 84 1.7 SSE 7 9 4 5 1013.1 1010.1 0.0
25/02:30am 19.8 21.2 17.4 86 1.5 S 6 9 3 5 1013.2 - 0.0
25/02:00am 19.6 21.8 16.6 83 1.8 CALM 0 0 0 0 1013.4 - 0.0
25/01:30am 19.6 22.0 17.0 85 1.6 CALM 0 0 0 0 1013.8 - 0.0
25/01:00am 20.1 22.5 16.9 82 2.0 CALM 0 6 0 3 1014.1 - 0.0
25/12:30am 19.8 22.0 16.4 81 2.1 CALM 0 0 0 0 1014.7 - 0.0
25/12:00am 20.6 22.9 16.8 79 2.4 CALM 0 0 0 0 1014.9 1012.0 0.0
 
Date/Time
EST
Temp
°C
App
Temp
°C
Dew
Point
Rel
Hum
%
Delta-T
°C
Wind Press
QNH
hPa
Press
MSL
hPa
Rain
since 9 am
mm
Dir
 
Spd
km/h
Gust
km/h
Spd
kts
Gust
kts
24/11:30pm 21.1 23.0 16.7 76 2.7 N 2 7 1 4 1015.4 - 0.0

Other Formats:

Comma delimited format used in spreadsheet applications
http://www.bom.gov.au/fwo/IDQ60801/IDQ60801.95286.axf

JavaScript Object Notation format (JSON) in row-major order
http://www.bom.gov.au/fwo/IDQ60801/IDQ60801.95286.json